»·PEaware :: N475RS KPHX-KLAS

N475RS :: KPHX-KLAS

FLIGHT INFORMATION

Flight Status: Arrived
Operator: Privately registered:
United States
More flights under this callsign
Pilot: Aker J. (16898)
Aircraft: BEECH AIRCRAFT BARON
(BE58)
More flights by this aircraft type
Origin: KPHX Phoenix Sky Harbor Intl
United States
Destination: KLAS McCarran Intl
United States
More flights between these airports :: More routes between these airports
Route: +MAYSA5 SISIE IGM TYSSN5
File this flight plan on PilotEdge
Remarks: N475RS
Altitude:
(Current/Filed)
42,000ft
Speed:
(Current/Filed)
300kts
Departed: 10-Jan-18 04:51 PM
Arrived: 10-Jan-18 05:43 PM
Distance/Time
Traveled:
222nm/0:52
Distance/Time
To Go:
Arrived

Flight Plot

Page will automatically refresh every two minutes.

Flight plan parsing failed; only flown route is shown


Map Options




Map Legend


Flown Route
Filed Route
Departure Airport
Arrival Airport
Navaid (VOR, NDB)
Fix

Horizontal Profiles

Position Reports

Time Latitude Longitude Heading Altitude Ground
Speed
10-Jan-18 16:24 33.426914 -112.018013 90 1115ft 0kts
10-Jan-18 16:25 33.426914 -112.018013 90 1115ft 0kts
10-Jan-18 16:26 33.426914 -112.018013 90 1115ft 0kts
10-Jan-18 16:27 33.426914 -112.018013 90 1115ft 0kts
10-Jan-18 16:28 33.426914 -112.018013 90 1115ft 0kts
10-Jan-18 16:29 33.426914 -112.018013 90 1115ft 0kts
10-Jan-18 16:30 33.426914 -112.018013 90 1115ft 0kts
10-Jan-18 16:31 33.426914 -112.018013 90 1115ft 0kts
10-Jan-18 16:32 33.426914 -112.018013 90 1115ft 0kts
10-Jan-18 16:33 33.426914 -112.018013 90 1115ft 0kts
10-Jan-18 16:34 33.426914 -112.018013 90 1115ft 0kts
10-Jan-18 16:35 33.426914 -112.018013 90 1115ft 0kts
10-Jan-18 16:36 33.426914 -112.018013 90 1115ft 0kts
10-Jan-18 16:37 33.426914 -112.018013 90 1115ft 0kts
10-Jan-18 16:38 33.426914 -112.018013 90 1115ft 0kts
10-Jan-18 16:39 33.426914 -112.018013 90 1115ft 0kts
10-Jan-18 16:40 33.426914 -112.018013 90 1115ft 0kts
10-Jan-18 16:41 33.426914 -112.018013 90 1115ft 0kts
10-Jan-18 16:42 33.426914 -112.018013 90 1115ft 0kts
10-Jan-18 16:43 33.426914 -112.018013 90 1115ft 0kts
10-Jan-18 16:44 33.426914 -112.018013 90 1115ft 0kts
10-Jan-18 16:45 33.426914 -112.018013 89 1115ft 0kts
10-Jan-18 16:46 33.426914 -112.018013 90 1115ft 0kts
10-Jan-18 16:47 33.426914 -112.018013 90 1115ft 0kts
10-Jan-18 16:48 33.426914 -112.018013 90 1115ft 0kts
10-Jan-18 16:49 33.427216 -112.017409 21 1115ft 10kts
10-Jan-18 16:50 33.427758 -112.013873 88 1117ft 12kts
10-Jan-18 16:51 33.427753 -112.009332 89 1118ft 15kts
10-Jan-18 16:52 33.427777 -112.005867 79 1118ft 6kts
10-Jan-18 16:53 33.429934 -112.002332 90 1121ft 22kts
10-Jan-18 16:54 33.429939 -111.996179 89 1121ft 17kts
10-Jan-18 16:55 33.430075 -111.993681 49 1121ft 0kts
10-Jan-18 16:56 33.431047 -111.994477 269 1121ft 25kts
10-Jan-18 16:57 33.431545 -112.029564 286 2323ft 145kts
10-Jan-18 16:58 33.442430 -112.088145 320 6156ft 176kts
10-Jan-18 16:59 33.478027 -112.102921 321 8644ft 221kts
10-Jan-18 17:00 33.528000 -112.167195 326 11175ft 298kts
10-Jan-18 17:01 33.601561 -112.195826 340 14715ft 284kts
10-Jan-18 17:02 33.675085 -112.219836 340 18955ft 276kts
10-Jan-18 17:03 33.749916 -112.244090 340 22955ft 295kts
10-Jan-18 17:04 33.831061 -112.270364 340 26924ft 313kts
10-Jan-18 17:05 33.914908 -112.297585 340 30859ft 312kts
10-Jan-18 17:06 33.999052 -112.324938 341 36210ft 321kts
10-Jan-18 17:07 34.078814 -112.385686 322 37986ft 376kts
10-Jan-18 17:08 34.159226 -112.466486 322 38021ft 389kts
10-Jan-18 17:09 34.242275 -112.550230 322 38016ft 389kts
10-Jan-18 17:10 34.325127 -112.633976 322 38013ft 389kts
10-Jan-18 17:11 34.406945 -112.716934 321 38023ft 389kts
10-Jan-18 17:12 34.489667 -112.801005 321 38019ft 389kts
10-Jan-18 17:13 34.572202 -112.885624 320 38011ft 388kts
10-Jan-18 17:14 34.651843 -112.972871 319 38012ft 386kts
10-Jan-18 17:15 34.731521 -113.058740 319 38005ft 384kts
10-Jan-18 17:16 34.810244 -113.145735 320 38019ft 383kts
10-Jan-18 17:17 34.888650 -113.231918 319 38023ft 384kts
10-Jan-18 17:18 34.967346 -113.318685 319 38018ft 380kts
10-Jan-18 17:19 35.025510 -113.425278 305 35956ft 374kts
10-Jan-18 17:20 35.076528 -113.534969 304 33129ft 376kts
10-Jan-18 17:21 35.127799 -113.645553 304 30426ft 389kts
10-Jan-18 17:22 35.177447 -113.753228 305 27769ft 320kts
10-Jan-18 17:23 35.216239 -113.837438 305 25056ft 259kts
10-Jan-18 17:24 35.249620 -113.909970 305 24053ft 255kts
10-Jan-18 17:25 35.305528 -113.975330 323 22809ft 297kts
10-Jan-18 17:26 35.372147 -114.037528 323 21262ft 307kts
10-Jan-18 17:27 35.438854 -114.099683 323 19729ft 308kts
10-Jan-18 17:28 35.506480 -114.162648 323 17961ft 301kts
10-Jan-18 17:29 35.570592 -114.222442 323 16138ft 266kts
10-Jan-18 17:30 35.626049 -114.274270 323 14309ft 248kts
10-Jan-18 17:31 35.680612 -114.325339 323 12502ft 247kts
10-Jan-18 17:32 35.733090 -114.374539 323 11994ft 228kts
10-Jan-18 17:33 35.779872 -114.400557 338 11439ft 232kts
10-Jan-18 17:34 35.836731 -114.427343 339 11247ft 255kts
10-Jan-18 17:35 35.892514 -114.453656 343 9918ft 182kts
10-Jan-18 17:36 35.939972 -114.475776 342 9991ft 191kts
10-Jan-18 17:37 35.991104 -114.499748 342 9985ft 196kts
10-Jan-18 17:38 36.035732 -114.527368 300 9760ft 186kts
10-Jan-18 17:39 36.048681 -114.588238 295 9193ft 183kts
10-Jan-18 17:40 36.059578 -114.651073 292 8041ft 191kts
10-Jan-18 17:41 36.070813 -114.713371 292 7992ft 193kts
10-Jan-18 17:42 36.073699 -114.787590 276 7078ft 222kts
10-Jan-18 17:43 36.073621 -114.860836 275 5858ft 207kts
10-Jan-18 17:44 36.073611 -114.928443 275 4732ft 184kts
10-Jan-18 17:45 36.071753 -114.986697 262 3623ft 177kts
10-Jan-18 17:46 36.073301 -115.041158 271 2817ft 141kts
10-Jan-18 17:47 36.073567 -115.089026 270 2422ft 125kts
10-Jan-18 17:48 36.073626 -115.130928 271 2069ft 114kts
10-Jan-18 17:49 36.074494 -115.145418 301 2100ft 0kts
10-Jan-18 17:50 36.074545 -115.145518 302 2100ft 9kts
10-Jan-18 17:51 36.077253 -115.146553 349 2101ft 3kts
10-Jan-18 17:52 36.078045 -115.153186 270 2122ft 25kts
10-Jan-18 17:53 36.078029 -115.165045 270 2162ft 28kts
10-Jan-18 17:54 36.080296 -115.169918 26 2171ft 29kts
10-Jan-18 17:55 36.081567 -115.170325 319 2169ft 0kts
10-Jan-18 17:56 36.081567 -115.170325 319 2169ft 0kts
10-Jan-18 17:57 36.081567 -115.170325 319 2169ft 0kts
10-Jan-18 17:58 36.081567 -115.170325 319 2169ft 0kts
10-Jan-18 17:59 36.081567 -115.170325 319 2169ft 0kts
10-Jan-18 18:00 36.081567 -115.170325 319 2169ft 0kts
10-Jan-18 18:01 36.081567 -115.170325 319 2169ft 0kts
10-Jan-18 18:02 36.081567 -115.170325 319 2169ft 0kts
10-Jan-18 18:03 36.081567 -115.170325 319 2169ft 0kts

Navigation Log

Ident Type
Flight plan parsing failed, navigation log unavailable